首页
METAR-TAF:

METAR-TAF

机场 :

明斯克国际机场

明斯克, 白俄罗斯

纬度: 53-56N, 经度: 027-38E, 海拔: 234米

当前天气观测

该预报发布于20分钟前的19:00 UTC
风速2节,风向
温度 3°C
湿度 81%
气压 992 hPa
能见度10公里或以上
多云层高于4600英尺

METAR: UMMS 261900Z 08001MPS 9999 BKN046 03/00 Q0992 R88/CLRD// NOSIG

时间: 22:20 (19:20 UTC)

预报

该预报发布于2小时和12分钟前的17:08 UTC
预报有效从26日的 18点(UTC)到 27日的 18点(UTC)
风速4节,风向多变
能見度: 6000
多云层高于1000英尺
短暂存在
从 26日的 18点(UTC)到 26日的 21点(UTC)
能見度: 1200
多云层高于300英尺
多云层高于1200英尺, 积雨云.
阵雨, 轻雾
从 26日的 2100点(UTC)
风速12节,风向西南
能見度: 3000
多云层高于400英尺
小雨, 雪, 轻雾
短暂存在
从 26日的 21点(UTC)到 27日的 09点(UTC)
风速14节,风向西,有时为23节阵风
能見度: 0500
多云层高于300英尺
多云层高于1000英尺, 积雨云.
大阵雪, 雨
短暂存在
从 27日的 09点(UTC)到 27日的 18点(UTC)
风速12节,风向西
能見度: 1200
多云层高于300英尺
多云层高于1000英尺, 积雨云.
阵雪

TAF: UMMS 261708Z 2618/2718 VRB02MPS 6000 BKN010 TEMPO 2618/2621 1200 SHRA BR BKN003 BKN012CB FM262100 23006MPS 3000 -RASN BR BKN004 TEMPO 2621/2709 27007G12MPS 0500 +SHSNRA BKN003 BKN010CB TEMPO 2709/2718 28006MPS 1200 SHSN BKN003 BKN010CB

超过4000个机场的气象观测和天气预报(METAR&TAF报告)。

可查询的气象台以黄色和红色小点在地图上表示。

将鼠标移到小点上方,可查看气象台名称。

然后点击查看天气观测和预报。

如需切换地图:点击带黑十字的绿色按钮放大地图;点击带横线的绿色按钮缩小地图;或者点击绿色箭头查看邻近地区的地图。


METAR-TAF: